| time (UTC) | temp F | wind direction | speed MPH | gust MPH | rain 1hr in | rain 24hr in | rain mn in | humidity % | barometer mb |
| 20260905051602 | 71 | 0 | 0.0 | 2.0 | 0.00 | 1.41 | 0.00 | 97 | 1015.6 |
| 20260905050104 | 71 | 0 | 0.0 | 1.0 | 0.00 | 1.41 | 0.00 | 96 | 1015.5 |
| 20260905044608 | 71 | 0 | 0.0 | 1.0 | 0.00 | 1.41 | 0.00 | 96 | 1015.3 |
| 20260905043106 | 71 | 0 | 0.0 | 1.0 | 0.00 | 1.41 | 0.00 | 96 | 1015.6 |
| 20260905041603 | 71 | 0 | 0.0 | 0.0 | 0.00 | 1.41 | 0.00 | 96 | 1015.6 |
| 20260905040100 | 71 | 0 | 0.0 | 0.0 | 0.00 | 1.41 | 0.00 | 96 | 1015.5 |
| 20260905035019 | 72 | 0 | 0.0 | 0.0 | 0.00 | 0.00 | 1.41 | 96 | 1015.9 |
| 20260905034606 | 71 | 0 | 0.0 | 0.0 | 0.00 | 1.41 | 1.41 | 96 | 1015.7 |
| 20260905033103 | 72 | 0 | 0.0 | 1.0 | 0.00 | 1.41 | 1.41 | 96 | 1015.9 |
| 20260905031609 | 72 | 0 | 0.0 | 0.0 | 0.00 | 1.41 | 1.41 | 96 | 1016.3 |
| 20260905030108 | 72 | 0 | 0.0 | 0.0 | 0.00 | 1.41 | 1.41 | 96 | 1016.4 |
| 20260905025601 | 72 | 0 | 0.0 | 0.0 | 0.00 | 0.00 | 1.41 | 96 | 1016.3 |
| 20260905024641 | 72 | 0 | 0.0 | 1.0 | 0.00 | 1.41 | 1.41 | 96 | 1016.3 |
| 20260905023110 | 71 | 0 | 0.0 | 0.0 | 0.00 | 1.41 | 1.41 | 95 | 1016.4 |
| 20260905022508 | 72 | 0 | 0.0 | 0.0 | 0.00 | 0.00 | 1.41 | 95 | 1016.3 |
| 20260905021605 | 71 | 0 | 0.0 | 0.0 | 0.00 | 1.41 | 1.41 | 95 | 1016.3 |
| 20260905021509 | 72 | 0 | 0.0 | 0.0 | 0.00 | 0.00 | 1.41 | 95 | 1016.3 |
| 20260905020516 | 72 | 0 | 0.0 | 0.0 | 0.00 | 0.00 | 1.41 | 95 | 1016.3 |
| 20260905020103 | 71 | 0 | 0.0 | 0.0 | 0.00 | 1.41 | 1.41 | 95 | 1016.2 |
| 20260905014605 | 71 | 0 | 0.0 | 0.0 | 0.00 | 1.41 | 1.41 | 95 | 1016.3 |
| 20260905013117 | 71 | 0 | 0.0 | 0.0 | 0.00 | 1.41 | 1.41 | 94 | 1016.4 |
| 20260905011605 | 71 | 0 | 0.0 | 0.0 | 0.00 | 1.41 | 1.41 | 94 | 1016.3 |
| 20260905010107 | 72 | 0 | 0.0 | 1.0 | 0.00 | 1.41 | 1.41 | 93 | 1016.1 |
| 20260905005402 | 72 | 0 | 0.0 | 0.0 | 0.00 | 0.00 | 1.41 | 93 | 1015.9 |
| 20260905004609 | 72 | 0 | 0.0 | 0.0 | 0.00 | 1.41 | 1.41 | 93 | 1016.0 |
| 20260905003107 | 72 | 0 | 0.0 | 0.0 | 0.00 | 1.41 | 1.41 | 92 | 1016.0 |
| 20260905001621 | 73 | 0 | 0.0 | 0.0 | 0.00 | 1.41 | 1.41 | 91 | 1016.0 |
| 20260905000110 | 73 | 0 | 0.0 | 0.0 | 0.00 | 1.41 | 1.41 | 91 | 1016.0 |
| 20260904235041 | 74 | 0 | 0.0 | 0.0 | 0.00 | 0.00 | 1.41 | 91 | 1015.9 |
| 20260904234606 | 74 | 0 | 0.0 | 0.0 | 0.00 | 1.41 | 1.41 | 91 | 1016.0 |
| 20260904233106 | 74 | 0 | 0.0 | 0.0 | 0.00 | 1.41 | 1.41 | 90 | 1015.7 |
| 20260904231605 | 74 | 0 | 0.0 | 1.0 | 0.00 | 1.41 | 1.41 | 90 | 1015.5 |
| 20260904224605 | 75 | 0 | 0.0 | 2.0 | 0.00 | 1.41 | 1.41 | 90 | 1015.4 |
| 20260904223112 | 75 | 24 | 0.0 | 3.0 | 0.00 | 1.41 | 1.41 | 89 | 1015.3 |
| 20260904221610 | 75 | 0 | 0.0 | 2.0 | 0.00 | 1.41 | 1.41 | 90 | 1015.2 |
| 20260904220106 | 75 | 0 | 0.0 | 3.0 | 0.00 | 1.41 | 1.41 | 90 | 1015.0 |
| 20260904215052 | 75 | 0 | 0.0 | 0.0 | 0.00 | 0.00 | 1.41 | 90 | 1015.2 |
| 20260904214609 | 75 | 0 | 0.0 | 2.0 | 0.00 | 1.41 | 1.41 | 90 | 1015.0 |
| 20260904213107 | 74 | 92 | 0.0 | 4.0 | 0.00 | 1.41 | 1.41 | 91 | 1015.0 |
| 20260904211619 | 74 | 0 | 1.0 | 6.0 | 0.00 | 1.41 | 1.41 | 93 | 1015.1 |
| 20260904210104 | 73 | 0 | 0.0 | 3.0 | 0.00 | 1.41 | 1.41 | 95 | 1014.8 |
| 20260904204601 | 73 | 37 | 1.0 | 5.0 | 0.00 | 1.44 | 1.41 | 96 | 1014.6 |
| 20260904203109 | 73 | 17 | 0.0 | 5.0 | 0.00 | 1.44 | 1.41 | 98 | 1014.7 |
| 20260904201606 | 73 | 37 | 0.0 | 3.0 | 0.00 | 1.44 | 1.41 | 98 | 1014.9 |
| 20260904200111 | 73 | 0 | 0.0 | 2.0 | 0.00 | 1.44 | 1.41 | 98 | 1014.8 |
| 20260904194716 | 73 | 60 | 1.0 | 1.0 | 0.00 | 0.00 | 1.41 | 98 | 1014.9 |
| 20260904194605 | 72 | 60 | 0.0 | 3.0 | 0.00 | 1.93 | 1.41 | 98 | 1014.7 |
| 20260904193216 | 73 | 0 | 0.0 | 0.0 | 0.00 | 0.00 | 1.41 | 99 | 1015.2 |
| 20260904193107 | 72 | 0 | 0.0 | 2.0 | 0.00 | 1.93 | 1.41 | 99 | 1015.3 |
| 20260904192217 | 72 | 42 | 0.0 | 0.0 | 0.00 | 0.00 | 1.41 | 98 | 1015.2 |
| 20260904191716 | 72 | 42 | 0.0 | 0.0 | 0.00 | 0.00 | 1.41 | 98 | 1015.2 |
| 20260904191607 | 72 | 42 | 0.0 | 3.0 | 0.00 | 1.93 | 1.41 | 98 | 1015.3 |
| 20260904190216 | 72 | 0 | 0.0 | 0.0 | 0.00 | 0.00 | 1.41 | 99 | 1015.6 |
| 20260904185216 | 72 | 0 | 0.0 | 0.0 | 0.00 | 0.00 | 1.41 | 98 | 1015.9 |
| 20260904184607 | 71 | 0 | 0.0 | 2.0 | 0.00 | 2.01 | 1.41 | 98 | 1015.7 |
| 20260904183216 | 71 | 0 | 1.0 | 1.0 | 0.00 | 0.00 | 1.41 | 99 | 1015.9 |
| 20260904183106 | 71 | 0 | 0.0 | 2.0 | 0.00 | 2.01 | 1.41 | 99 | 1016.0 |
| 20260904182216 | 71 | 148 | 1.0 | 1.0 | 0.00 | 0.00 | 1.41 | 99 | 1016.3 |
| 20260904181717 | 71 | 148 | 1.0 | 1.0 | 0.00 | 0.00 | 1.41 | 99 | 1016.3 |
| 20260904181603 | 71 | 148 | 0.0 | 1.0 | 0.00 | 2.01 | 1.41 | 99 | 1016.0 |
| 20260904180716 | 71 | 148 | 0.0 | 0.0 | 0.00 | 0.00 | 1.41 | 99 | 1015.9 |
| 20260904180112 | 71 | 148 | 0.0 | 2.0 | 0.00 | 2.01 | 1.41 | 99 | 1016.0 |
| 20260904174716 | 71 | 0 | 0.0 | 0.0 | 0.00 | 0.00 | 1.41 | 98 | 1016.6 |
| 20260904174605 | 71 | 0 | 0.0 | 1.0 | 0.00 | 2.01 | 1.41 | 98 | 1016.4 |
| 20260904173716 | 71 | 0 | 0.0 | 0.0 | 0.00 | 0.00 | 1.41 | 99 | 1016.3 |
| 20260904173104 | 71 | 0 | 0.0 | 2.0 | 0.00 | 2.01 | 1.41 | 99 | 1016.2 |
| 20260904172716 | 72 | 0 | 0.0 | 0.0 | 0.00 | 0.00 | 1.41 | 99 | 1016.3 |
| 20260904171716 | 72 | 0 | 0.0 | 0.0 | 0.00 | 0.00 | 1.41 | 99 | 1016.3 |
| 20260904171602 | 71 | 0 | 0.0 | 1.0 | 0.00 | 2.01 | 1.41 | 99 | 1016.3 |
| 20260904170716 | 71 | 256 | 0.0 | 0.0 | 0.00 | 0.00 | 1.41 | 99 | 1016.6 |
| 20260904170107 | 71 | 256 | 0.0 | 2.0 | 0.00 | 2.01 | 1.41 | 99 | 1016.5 |
| 20260904165717 | 71 | 0 | 0.0 | 0.0 | 0.00 | 0.00 | 1.41 | 98 | 1016.3 |
| 20260904165216 | 71 | 0 | 0.0 | 0.0 | 0.00 | 0.00 | 1.41 | 98 | 1016.3 |
| 20260904164609 | 70 | 0 | 0.0 | 2.0 | 0.00 | 2.01 | 1.41 | 98 | 1016.3 |
| 20260904164216 | 70 | 0 | 0.0 | 0.0 | 0.02 | 0.00 | 1.41 | 99 | 1016.3 |
| 20260904163109 | 70 | 0 | 0.0 | 1.0 | 0.02 | 2.01 | 1.41 | 99 | 1016.3 |
| 20260904162716 | 70 | 0 | 0.0 | 0.0 | 0.07 | 0.00 | 1.41 | 99 | 1016.3 |
| 20260904161602 | 69 | 0 | 0.0 | 1.0 | 0.07 | 2.01 | 1.41 | 99 | 1016.3 |
| 20260904160105 | 69 | 0 | 0.0 | 1.0 | 0.12 | 2.01 | 1.41 | 98 | 1016.5 |
| 20260904155716 | 69 | 360 | 1.0 | 1.0 | 0.16 | 0.00 | 1.41 | 98 | 1016.3 |
| 20260904154606 | 68 | 360 | 0.0 | 2.0 | 0.16 | 2.03 | 1.41 | 98 | 1016.3 |
| 20260904153107 | 68 | 360 | 0.0 | 2.0 | 0.15 | 2.01 | 1.39 | 98 | 1016.5 |
| 20260904152716 | 69 | 360 | 1.0 | 1.0 | 0.12 | 0.00 | 1.34 | 98 | 1017.6 |
| 20260904151603 | 68 | 360 | 0.0 | 3.0 | 0.12 | 1.96 | 1.34 | 98 | 1017.6 |
| 20260904151216 | 69 | 0 | 0.0 | 0.0 | 0.13 | 0.00 | 1.29 | 98 | 1018.3 |
| 20260904150110 | 68 | 0 | 0.0 | 1.0 | 0.13 | 1.91 | 1.29 | 98 | 1018.2 |
| 20260904145216 | 69 | 0 | 0.0 | 0.0 | 0.13 | 0.00 | 1.25 | 98 | 1018.3 |
| 20260904144604 | 68 | 0 | 0.0 | 1.0 | 0.13 | 1.89 | 1.25 | 98 | 1018.1 |
| 20260904143216 | 69 | 0 | 0.0 | 0.0 | 0.14 | 0.00 | 1.24 | 98 | 1017.6 |
| 20260904143103 | 68 | 0 | 0.0 | 1.0 | 0.14 | 1.88 | 1.24 | 98 | 1017.6 |
| 20260904142717 | 69 | 0 | 0.0 | 0.0 | 0.14 | 0.00 | 1.22 | 98 | 1017.9 |
| 20260904141622 | 68 | 0 | 0.0 | 2.0 | 0.14 | 1.86 | 1.22 | 98 | 1018.0 |
| 20260904140717 | 69 | 0 | 1.0 | 1.0 | 0.18 | 0.00 | 1.16 | 98 | 1018.3 |
| 20260904140105 | 68 | 0 | 0.0 | 1.0 | 0.18 | 1.80 | 1.16 | 98 | 1018.3 |
| 20260904135716 | 69 | 0 | 1.0 | 1.0 | 0.26 | 0.00 | 1.12 | 98 | 1018.6 |
| 20260904134716 | 69 | 0 | 2.0 | 2.0 | 0.26 | 0.00 | 1.12 | 98 | 1018.6 |
| 20260904134605 | 68 | 0 | 0.0 | 3.0 | 0.26 | 1.76 | 1.12 | 98 | 1018.4 |
| 20260904133716 | 68 | 331 | 2.0 | 2.0 | 0.50 | 0.00 | 1.10 | 98 | 1017.9 |
| 20260904133107 | 68 | 331 | 1.0 | 3.0 | 0.50 | 1.74 | 1.10 | 98 | 1017.9 |
| 20260904131636 | 68 | 0 | 0.0 | 2.0 | 0.64 | 1.72 | 1.08 | 98 | 1017.7 |
| 20260904130059 | 67 | 0 | 0.0 | 8.0 | 0.77 | 1.62 | 0.98 | 98 | 1017.3 |
| 20260904124605 | 68 | 73 | 4.0 | 9.0 | 0.86 | 1.50 | 0.86 | 98 | 1016.7 |
| 20260904123110 | 68 | 0 | 0.0 | 5.0 | 0.60 | 1.24 | 0.60 | 98 | 1017.4 |
| 20260904122959 | 68 | 327 | 1.0 | 1.0 | 0.44 | 0.00 | 0.44 | 98 | 1016.9 |
| 20260904121604 | 68 | 327 | 1.0 | 4.0 | 0.44 | 1.08 | 0.44 | 98 | 1017.0 |
| 20260904120105 | 68 | 150 | 0.0 | 4.0 | 0.21 | 0.85 | 0.21 | 98 | 1016.8 |
| 20260904114605 | 68 | 56 | 0.0 | 2.0 | 0.00 | 0.64 | 0.00 | 98 | 1017.4 |
| 20260904113110 | 68 | 0 | 0.0 | 2.0 | 0.00 | 0.64 | 0.00 | 98 | 1017.1 |
| 20260904111610 | 68 | 0 | 0.0 | 1.0 | 0.00 | 0.64 | 0.00 | 98 | 1017.1 |
| 20260904110106 | 68 | 0 | 0.0 | 0.0 | 0.00 | 0.64 | 0.00 | 98 | 1016.7 |
| 20260904104612 | 68 | 0 | 0.0 | 0.0 | 0.00 | 0.64 | 0.00 | 98 | 1016.6 |
| 20260904103108 | 68 | 0 | 0.0 | 0.0 | 0.00 | 0.64 | 0.00 | 98 | 1016.5 |
| 20260904101605 | 68 | 0 | 0.0 | 0.0 | 0.00 | 0.64 | 0.00 | 98 | 1016.2 |
| 20260904100111 | 68 | 0 | 0.0 | 3.0 | 0.00 | 0.64 | 0.00 | 98 | 1015.7 |
| 20260904094607 | 68 | 227 | 0.0 | 2.0 | 0.00 | 0.64 | 0.00 | 98 | 1015.6 |
| 20260904093107 | 67 | 0 | 0.0 | 1.0 | 0.00 | 0.64 | 0.00 | 98 | 1015.4 |
| 20260904091601 | 67 | 0 | 0.0 | 0.0 | 0.00 | 0.64 | 0.00 | 98 | 1015.7 |
| 20260904091302 | 68 | 0 | 0.0 | 0.0 | 0.00 | 0.00 | 0.00 | 98 | 1016.3 |
| 20260904090106 | 67 | 0 | 0.0 | 0.0 | 0.00 | 0.64 | 0.00 | 98 | 1016.1 |
| 20260904084608 | 67 | 0 | 0.0 | 0.0 | 0.00 | 0.64 | 0.00 | 98 | 1016.2 |
| 20260904083102 | 67 | 0 | 0.0 | 1.0 | 0.00 | 0.64 | 0.00 | 98 | 1016.0 |
| 20260904081609 | 67 | 0 | 0.0 | 0.0 | 0.00 | 0.64 | 0.00 | 98 | 1015.8 |
| 20260904080109 | 67 | 0 | 0.0 | 0.0 | 0.00 | 0.64 | 0.00 | 98 | 1016.3 |
| 20260904074635 | 67 | 0 | 0.0 | 0.0 | 0.00 | 0.66 | 0.00 | 98 | 1016.1 |
| 20260904073104 | 67 | 0 | 0.0 | 0.0 | 0.00 | 0.66 | 0.00 | 98 | 1015.9 |
| 20260904072437 | 68 | 219 | 0.0 | 0.0 | 0.00 | 0.00 | 0.00 | 98 | 1015.9 |
| 20260904071606 | 68 | 219 | 0.0 | 2.0 | 0.00 | 0.66 | 0.00 | 98 | 1016.0 |
| 20260904070105 | 68 | 0 | 0.0 | 0.0 | 0.00 | 0.66 | 0.00 | 98 | 1016.4 |
| 20260904064601 | 68 | 0 | 0.0 | 0.0 | 0.00 | 0.78 | 0.00 | 98 | 1016.7 |
| 20260904063113 | 68 | 0 | 0.0 | 0.0 | 0.00 | 0.78 | 0.00 | 98 | 1016.8 |
| 20260904061605 | 68 | 0 | 0.0 | 0.0 | 0.00 | 0.78 | 0.00 | 98 | 1016.9 |
| 20260904060114 | 68 | 0 | 0.0 | 0.0 | 0.00 | 0.78 | 0.00 | 98 | 1016.8 |
| 20260904054609 | 68 | 0 | 0.0 | 0.0 | 0.00 | 0.78 | 0.00 | 97 | 1017.0 |
| 20260904053102 | 68 | 0 | 0.0 | 0.0 | 0.00 | 0.78 | 0.00 | 97 | 1016.9 |